Time;durP1;ratioP1;P1;durP2;ratioP2;P2;SDS_P1;SDS_P2;PMS_P1;PMS_P2;Temp;Humidity;BMP_temperature;BMP_pressure;BME280_temperature;BME280_humidity;BME280_pressure;Samples;Min_cycle;Max_cycle;Signal;HPM_P1;HPM_P2
2022/11/07 00:02:07;;;;;;;2.17;1.10;;;13.40;99.90;;;;;;4970248;28;20388;-73
2022/11/07 00:04:33;;;;;;;0.87;0.73;;;13.40;99.90;;;;;;4963568;28;20423;-72
2022/11/07 00:06:59;;;;;;;1.05;0.80;;;13.50;99.90;;;;;;4971332;28;20408;-72
2022/11/07 00:09:25;;;;;;;1.10;0.82;;;13.40;99.90;;;;;;4969589;28;20412;-71
2022/11/07 00:11:50;;;;;;;2.10;0.80;;;13.50;99.90;;;;;;4971534;28;20396;-72
2022/11/07 00:14:17;;;;;;;1.00;0.90;;;13.50;99.90;;;;;;4971449;28;20399;-71
2022/11/07 00:16:44;;;;;;;1.10;0.70;;;13.50;99.90;;;;;;4971429;28;20395;-71
2022/11/07 00:19:13;;;;;;;1.63;0.70;;;13.60;99.90;;;;;;4971016;28;20380;-70
2022/11/07 00:21:38;;;;;;;0.70;0.60;;;13.50;99.90;;;;;;4971105;28;20384;-72
2022/11/07 00:24:05;;;;;;;1.10;0.90;;;13.60;99.90;;;;;;4970889;28;20392;-70
2022/11/07 00:26:31;;;;;;;0.80;0.77;;;13.50;99.90;;;;;;4970750;28;20397;-73
2022/11/07 00:28:56;;;;;;;0.98;0.80;;;13.50;99.90;;;;;;4971059;28;20392;-71
2022/11/07 00:31:22;;;;;;;1.93;1.07;;;13.50;99.90;;;;;;4969949;28;20392;-72
2022/11/07 00:33:48;;;;;;;1.70;1.00;;;13.50;99.90;;;;;;4970592;28;20408;-73
2022/11/07 00:36:21;;;;;;;0.80;0.70;;;13.50;99.90;;;;;;4970451;28;20392;-72
2022/11/07 00:38:47;;;;;;;1.55;0.80;;;13.50;99.90;;;;;;4974412;28;20391;-71
2022/11/07 00:41:13;;;;;;;1.23;0.80;;;13.50;99.90;;;;;;4988163;28;20961;-71
2022/11/07 00:43:39;;;;;;;1.23;0.90;;;13.40;99.90;;;;;;4970722;28;20392;-73
2022/11/07 00:46:06;;;;;;;1.17;0.80;;;13.40;99.90;;;;;;4971180;28;20386;-72
2022/11/07 00:48:32;;;;;;;0.80;0.80;;;13.40;99.90;;;;;;4970720;28;20396;-71
2022/11/07 00:51:12;;;;;;;1.10;0.90;;;13.30;99.90;;;;;;4973533;28;20395;-72
2022/11/07 00:53:38;;;;;;;0.80;0.80;;;13.20;99.90;;;;;;4967341;28;20529;-72
2022/11/07 00:56:07;;;;;;;2.00;1.10;;;13.00;99.90;;;;;;4974227;28;20432;-71
2022/11/07 00:58:33;;;;;;;1.90;1.00;;;12.90;99.90;;;;;;4955134;29;20488;-72
2022/11/07 01:00:59;;;;;;;2.20;1.00;;;12.80;99.90;;;;;;4954957;28;20394;-72
2022/11/07 01:06:10;;;;;;;1.55;1.10;;;12.40;99.90;;;;;;4965135;28;20419;-73
2022/11/07 01:08:35;;;;;;;1.20;0.85;;;12.00;99.90;;;;;;4974926;28;20471;-74
2022/11/07 01:11:05;;;;;;;1.20;1.10;;;11.90;99.90;;;;;;4974631;28;21029;-72
2022/11/07 01:13:31;;;;;;;1.70;1.00;;;11.80;99.90;;;;;;4964844;28;20775;-72
2022/11/07 01:15:57;;;;;;;0.93;0.90;;;11.70;99.90;;;;;;4973195;28;20403;-73
2022/11/07 01:18:22;;;;;;;1.63;1.00;;;11.70;99.90;;;;;;4974388;28;20373;-73
2022/11/07 01:20:48;;;;;;;1.07;0.90;;;11.70;99.90;;;;;;4974264;28;20396;-72
2022/11/07 01:23:15;;;;;;;2.60;1.10;;;11.70;99.90;;;;;;4974000;28;20404;-72
2022/11/07 01:25:41;;;;;;;1.20;1.10;;;11.80;99.90;;;;;;4973992;28;20392;-71
2022/11/07 01:28:07;;;;;;;1.80;0.98;;;11.80;99.90;;;;;;4974059;28;20388;-71
2022/11/07 01:30:37;;;;;;;2.97;1.40;;;11.80;99.90;;;;;;4974069;28;20389;-71
2022/11/07 01:33:03;;;;;;;1.20;1.00;;;11.60;99.90;;;;;;4973840;28;20404;-70
2022/11/07 01:35:28;;;;;;;1.33;0.90;;;11.60;99.90;;;;;;4974105;28;20396;-69
2022/11/07 01:37:54;;;;;;;2.20;1.20;;;11.60;99.90;;;;;;4974209;28;20504;-70
2022/11/07 01:40:19;;;;;;;1.80;0.90;;;11.70;99.90;;;;;;4974203;28;20392;-71
2022/11/07 01:42:45;;;;;;;1.45;0.90;;;11.60;99.90;;;;;;4972285;28;20400;-70
2022/11/07 01:45:20;;;;;;;1.83;1.10;;;11.60;99.90;;;;;;4970909;28;20404;-71
2022/11/07 01:47:46;;;;;;;1.20;0.80;;;11.80;99.90;;;;;;4973378;28;20418;-71
2022/11/07 01:50:12;;;;;;;2.63;0.93;;;11.70;99.90;;;;;;4973311;28;20755;-71
2022/11/07 01:52:40;;;;;;;1.30;1.02;;;11.90;99.90;;;;;;4963652;28;20420;-70
2022/11/07 01:55:11;;;;;;;2.28;1.00;;;11.90;99.90;;;;;;4954559;28;20453;-71
2022/11/07 01:57:45;;;;;;;1.95;1.00;;;11.80;99.90;;;;;;4997082;23;20483;-72
2022/11/07 02:00:14;;;;;;;1.70;1.10;;;12.00;99.90;;;;;;4973630;28;20396;-72
2022/11/07 02:02:41;;;;;;;1.40;0.90;;;12.00;99.90;;;;;;4972186;28;20440;-72
2022/11/07 02:05:08;;;;;;;2.08;1.00;;;12.20;99.90;;;;;;4973806;28;20844;-72
2022/11/07 02:07:34;;;;;;;2.60;1.20;;;12.00;99.90;;;;;;4973596;28;20910;-72
2022/11/07 02:10:01;;;;;;;2.15;1.30;;;12.10;99.90;;;;;;4973877;28;20949;-72
2022/11/07 02:12:27;;;;;;;1.80;1.00;;;12.10;99.90;;;;;;4973579;28;20416;-72
2022/11/07 02:14:54;;;;;;;1.80;1.23;;;12.10;99.90;;;;;;4973110;28;20825;-72
2022/11/07 02:17:20;;;;;;;1.63;1.00;;;12.30;99.90;;;;;;4973411;28;20391;-71
2022/11/07 02:19:49;;;;;;;3.90;1.33;;;12.30;99.90;;;;;;4973431;28;20475;-72
2022/11/07 02:22:52;;;;;;;1.15;0.80;;;12.20;99.90;;;;;;4987932;28;20937;-72
2022/11/07 02:25:19;;;;;;;3.20;1.10;;;12.40;99.90;;;;;;4974363;28;20446;-71
2022/11/07 02:27:48;;;;;;;3.70;1.10;;;12.60;99.90;;;;;;4956173;28;20809;-71
2022/11/07 02:30:17;;;;;;;3.85;1.20;;;12.60;99.90;;;;;;4969486;28;20392;-72
2022/11/07 02:32:43;;;;;;;2.42;1.10;;;12.60;99.90;;;;;;4991066;28;20435;-71
2022/11/07 02:35:33;;;;;;;1.50;1.00;;;12.70;99.90;;;;;;4975310;28;20805;-72
2022/11/07 02:38:00;;;;;;;2.33;1.10;;;12.70;99.90;;;;;;4973083;28;20762;-73
2022/11/07 02:40:27;;;;;;;2.70;1.20;;;12.70;99.90;;;;;;4969503;28;20425;-72
2022/11/07 02:42:53;;;;;;;2.20;0.90;;;12.80;99.90;;;;;;4953638;28;20405;-72
2022/11/07 02:45:25;;;;;;;2.92;1.27;;;12.80;99.90;;;;;;4953713;28;20469;-72
2022/11/07 02:47:51;;;;;;;2.70;1.10;;;12.90;99.90;;;;;;4953670;28;20448;-71
2022/11/07 02:50:16;;;;;;;2.35;0.95;;;12.90;99.90;;;;;;4953707;28;20425;-72
2022/11/07 02:52:42;;;;;;;2.95;1.15;;;13.00;99.90;;;;;;4952998;28;20412;-72
2022/11/07 02:55:09;;;;;;;3.90;1.20;;;13.00;99.90;;;;;;4953806;28;20393;-72
2022/11/07 02:57:35;;;;;;;3.78;1.15;;;13.00;99.90;;;;;;4953432;28;20476;-72
2022/11/07 03:00:01;;;;;;;2.97;1.10;;;12.90;99.90;;;;;;4953541;28;20891;-72
2022/11/07 03:02:26;;;;;;;4.00;1.52;;;12.90;99.90;;;;;;4953085;28;20434;-72
2022/11/07 03:04:52;;;;;;;4.25;1.15;;;13.00;99.90;;;;;;4953340;28;20394;-72
2022/11/07 03:07:18;;;;;;;2.60;1.40;;;13.00;99.90;;;;;;4953262;28;20427;-72
2022/11/07 03:09:43;;;;;;;2.40;1.00;;;13.10;99.90;;;;;;4953308;28;20394;-73
2022/11/07 03:12:09;;;;;;;2.58;1.10;;;13.10;99.90;;;;;;4953251;28;20409;-72
2022/11/07 03:14:34;;;;;;;3.70;1.40;;;13.10;99.90;;;;;;4951543;28;21129;-73
2022/11/07 03:17:00;;;;;;;2.70;1.10;;;13.00;99.90;;;;;;4953253;28;20772;-72
2022/11/07 03:19:25;;;;;;;4.30;1.48;;;13.00;99.90;;;;;;4953043;28;20382;-72
2022/11/07 03:21:51;;;;;;;1.40;1.13;;;12.90;99.90;;;;;;4982693;28;20473;-72
2022/11/07 03:24:17;;;;;;;2.72;1.02;;;12.90;99.90;;;;;;4991018;28;20441;-72
2022/11/07 03:26:42;;;;;;;1.57;1.33;;;12.80;99.90;;;;;;4990218;28;20387;-72
2022/11/07 03:29:08;;;;;;;2.80;1.23;;;12.70;99.90;;;;;;4990461;28;20390;-72
2022/11/07 03:31:33;;;;;;;1.97;1.10;;;12.70;99.90;;;;;;4990375;28;20452;-72
2022/11/07 03:33:59;;;;;;;2.40;1.10;;;12.60;99.90;;;;;;5005822;28;20402;-72
2022/11/07 03:36:25;;;;;;;1.27;0.90;;;12.60;99.90;;;;;;4989782;28;20387;-72
2022/11/07 03:38:51;;;;;;;1.38;1.05;;;12.50;99.90;;;;;;4992035;28;20394;-72
2022/11/07 03:41:16;;;;;;;2.70;1.10;;;12.50;99.90;;;;;;4991512;28;20390;-72
2022/11/07 03:43:45;;;;;;;3.40;1.20;;;12.40;99.90;;;;;;4991659;28;20429;-72
2022/11/07 03:46:12;;;;;;;2.90;1.10;;;12.50;99.90;;;;;;4991821;28;20386;-71
2022/11/07 03:48:38;;;;;;;3.88;1.23;;;12.40;99.90;;;;;;4991968;28;20398;-72
2022/11/07 03:51:05;;;;;;;2.65;1.20;;;12.50;99.90;;;;;;4991189;28;20382;-72
2022/11/07 03:53:31;;;;;;;3.30;1.20;;;12.50;99.90;;;;;;4991445;28;20488;-73
2022/11/07 03:55:57;;;;;;;3.88;1.10;;;12.50;99.90;;;;;;4986101;28;20392;-72
2022/11/07 03:58:23;;;;;;;3.08;1.20;;;12.50;99.90;;;;;;4971546;28;20431;-72
2022/11/07 04:00:48;;;;;;;2.08;1.20;;;12.50;99.90;;;;;;4971467;28;20428;-72
2022/11/07 04:03:14;;;;;;;2.37;1.07;;;12.50;99.90;;;;;;4981397;28;20496;-72
2022/11/07 04:05:40;;;;;;;2.20;1.20;;;12.40;99.90;;;;;;4990690;28;20800;-72
2022/11/07 04:08:05;;;;;;;3.97;1.17;;;12.50;99.90;;;;;;4981056;28;20412;-72
2022/11/07 04:10:31;;;;;;;2.50;1.20;;;12.50;99.90;;;;;;4970683;28;20503;-72
2022/11/07 04:18:27;;;;;;;3.70;1.20;;;12.60;99.90;;;;;;4970211;28;20393;-74
2022/11/07 04:20:53;;;;;;;3.47;1.00;;;12.60;99.90;;;;;;4967409;28;20761;-72
2022/11/07 04:23:18;;;;;;;2.40;0.90;;;12.70;99.90;;;;;;4971917;28;20539;-72
2022/11/07 04:28:28;;;;;;;2.40;0.90;;;12.70;99.90;;;;;;4978261;28;20469;-72
2022/11/07 04:30:53;;;;;;;3.50;1.40;;;12.80;99.90;;;;;;4968759;28;20465;-72
2022/11/07 04:33:19;;;;;;;2.53;1.27;;;12.80;99.90;;;;;;4972795;28;20419;-72
2022/11/07 04:35:44;;;;;;;1.48;1.23;;;12.90;99.90;;;;;;4974003;28;20408;-73
2022/11/07 04:38:10;;;;;;;2.70;1.20;;;13.10;99.90;;;;;;4970220;28;20488;-72
2022/11/07 04:40:35;;;;;;;4.70;1.30;;;13.20;99.90;;;;;;4974137;28;20415;-73
2022/11/07 04:43:07;;;;;;;2.78;1.23;;;13.20;99.90;;;;;;4981938;28;20407;-72
2022/11/07 04:45:37;;;;;;;4.38;1.10;;;13.20;99.90;;;;;;4989495;28;20398;-72
2022/11/07 04:48:03;;;;;;;2.55;0.90;;;13.10;99.90;;;;;;4976672;28;20499;-73
2022/11/07 04:50:29;;;;;;;3.50;1.42;;;13.20;99.90;;;;;;4975772;28;20419;-72
2022/11/07 04:52:55;;;;;;;3.17;1.50;;;13.20;99.90;;;;;;4972971;28;21204;-71
2022/11/07 04:55:23;;;;;;;4.07;1.50;;;13.10;99.90;;;;;;4975866;28;20411;-72
2022/11/07 04:57:49;;;;;;;1.83;1.00;;;13.10;99.90;;;;;;4912033;28;1755826;-72
2022/11/07 05:00:16;;;;;;;2.05;1.02;;;13.00;99.90;;;;;;4976306;28;20427;-72
2022/11/07 05:02:41;;;;;;;3.65;1.75;;;13.10;99.90;;;;;;4976668;28;20446;-72
2022/11/07 05:05:07;;;;;;;3.50;1.30;;;13.00;99.90;;;;;;4975672;28;20404;-72
2022/11/07 05:07:33;;;;;;;2.60;1.20;;;13.00;99.90;;;;;;4970739;28;20408;-72
2022/11/07 05:09:58;;;;;;;2.67;1.10;;;13.00;99.90;;;;;;4976207;28;20419;-73
2022/11/07 05:12:24;;;;;;;3.38;1.30;;;13.20;99.90;;;;;;4975934;28;20419;-73
2022/11/07 05:14:49;;;;;;;3.27;1.10;;;13.00;99.90;;;;;;4959936;28;20397;-73
2022/11/07 05:17:15;;;;;;;1.97;1.30;;;13.00;99.90;;;;;;4974819;28;20420;-73
2022/11/07 05:19:44;;;;;;;3.15;1.20;;;13.00;99.90;;;;;;4972180;28;20470;-72
2022/11/07 05:24:54;;;;;;;3.00;1.17;;;12.90;99.90;;;;;;4975756;28;20475;-72
2022/11/07 05:27:21;;;;;;;2.80;1.40;;;12.90;99.90;;;;;;4975994;28;20830;-72
2022/11/07 05:29:47;;;;;;;2.93;1.20;;;13.00;99.90;;;;;;4976363;28;20402;-73
2022/11/07 05:32:13;;;;;;;2.60;0.80;;;13.10;99.90;;;;;;4970494;28;20791;-72
2022/11/07 05:34:38;;;;;;;1.95;1.50;;;13.10;99.90;;;;;;4974869;28;20392;-73
2022/11/07 05:37:09;;;;;;;2.30;1.00;;;13.10;99.90;;;;;;4957770;28;20386;-73
2022/11/07 05:39:34;;;;;;;1.70;1.00;;;13.10;99.90;;;;;;4954667;28;20469;-73
2022/11/07 05:42:00;;;;;;;2.30;1.30;;;13.10;99.90;;;;;;4956427;28;20481;-73
2022/11/07 05:44:26;;;;;;;2.00;1.35;;;13.10;99.90;;;;;;4956167;28;20393;-73
2022/11/07 05:46:52;;;;;;;2.60;1.50;;;13.20;99.90;;;;;;4955394;28;20467;-73
2022/11/07 05:49:17;;;;;;;2.20;1.30;;;13.10;99.90;;;;;;4969223;28;20455;-73
2022/11/07 05:51:43;;;;;;;5.47;2.58;;;13.10;99.90;;;;;;4974794;28;20407;-73
2022/11/07 05:54:08;;;;;;;2.50;1.17;;;13.00;99.90;;;;;;4971279;28;20423;-73
2022/11/07 05:56:36;;;;;;;2.40;1.00;;;13.00;99.90;;;;;;4968198;28;20404;-72
2022/11/07 05:59:02;;;;;;;3.10;1.27;;;12.90;99.90;;;;;;4972893;28;20482;-73
2022/11/07 06:01:28;;;;;;;3.72;1.00;;;13.00;99.90;;;;;;4973332;28;20447;-72
2022/11/07 06:03:53;;;;;;;3.83;1.20;;;13.00;99.90;;;;;;4958942;28;20401;-73
2022/11/07 06:06:19;;;;;;;2.43;1.17;;;12.90;99.90;;;;;;4965280;28;20412;-73
2022/11/07 06:08:44;;;;;;;3.20;1.00;;;12.90;99.90;;;;;;4968300;28;20406;-73
2022/11/07 06:11:10;;;;;;;3.95;1.20;;;12.90;99.90;;;;;;4957857;28;20782;-73
2022/11/07 06:13:35;;;;;;;2.87;1.40;;;12.90;99.90;;;;;;4973043;28;20443;-73
2022/11/07 06:16:01;;;;;;;2.60;1.70;;;12.90;99.90;;;;;;4973597;28;20443;-73
2022/11/07 06:18:26;;;;;;;3.53;1.13;;;12.90;99.90;;;;;;4966448;28;20462;-73
2022/11/07 06:20:52;;;;;;;3.40;1.20;;;12.90;99.90;;;;;;4973150;28;20743;-73
2022/11/07 06:23:18;;;;;;;3.57;1.07;;;12.90;99.90;;;;;;4973149;28;20920;-72
2022/11/07 06:25:44;;;;;;;3.78;1.17;;;12.90;99.90;;;;;;4973551;28;20392;-73
2022/11/07 06:28:11;;;;;;;1.80;1.10;;;12.90;99.90;;;;;;4972409;28;20392;-73
2022/11/07 06:30:37;;;;;;;4.03;1.30;;;12.90;99.90;;;;;;4972026;28;20395;-72
2022/11/07 06:33:05;;;;;;;1.80;1.00;;;12.80;99.90;;;;;;4972038;28;20411;-72
2022/11/07 06:35:31;;;;;;;1.52;1.10;;;12.90;99.90;;;;;;4972916;28;20400;-73
2022/11/07 06:38:02;;;;;;;2.80;1.00;;;13.00;99.90;;;;;;4973111;28;20403;-72
2022/11/07 06:40:27;;;;;;;2.20;1.50;;;12.90;99.90;;;;;;4971862;28;20400;-72
2022/11/07 06:42:53;;;;;;;1.92;1.10;;;12.90;99.90;;;;;;4972636;28;20411;-73
2022/11/07 06:45:18;;;;;;;3.97;1.10;;;13.00;99.90;;;;;;4973069;28;20814;-73
2022/11/07 06:47:44;;;;;;;1.60;1.00;;;12.90;99.90;;;;;;4972604;28;20503;-72
2022/11/07 06:50:09;;;;;;;2.85;1.00;;;12.90;99.90;;;;;;4973003;28;20858;-74
2022/11/07 06:52:35;;;;;;;2.17;1.10;;;12.90;99.90;;;;;;4972566;28;20909;-74
2022/11/07 06:55:01;;;;;;;1.83;1.10;;;13.00;99.90;;;;;;4971827;28;20402;-73
2022/11/07 06:57:26;;;;;;;2.10;1.10;;;13.00;99.90;;;;;;4972558;28;20511;-71
2022/11/07 06:59:52;;;;;;;1.98;1.00;;;13.00;99.90;;;;;;4972881;28;20388;-72
2022/11/07 07:02:17;;;;;;;2.20;1.10;;;13.10;99.90;;;;;;4972799;28;20388;-72
2022/11/07 07:04:42;;;;;;;2.47;1.10;;;13.00;99.90;;;;;;4972568;28;20384;-72
2022/11/07 07:07:08;;;;;;;2.63;1.27;;;13.00;99.90;;;;;;4972596;28;20474;-71
2022/11/07 07:09:33;;;;;;;2.80;1.20;;;13.10;99.90;;;;;;4971710;28;20763;-72
2022/11/07 07:11:59;;;;;;;2.60;1.40;;;13.00;99.90;;;;;;4973576;28;20384;-72
2022/11/07 07:14:24;;;;;;;4.27;1.40;;;13.00;99.90;;;;;;4972486;28;20404;-72
2022/11/07 07:16:50;;;;;;;3.33;1.08;;;13.00;99.90;;;;;;4972418;28;20392;-72
2022/11/07 07:19:15;;;;;;;3.43;1.53;;;13.00;99.90;;;;;;4972550;28;20412;-73
2022/11/07 07:21:41;;;;;;;3.30;1.20;;;13.10;99.90;;;;;;4986058;28;20448;-73
2022/11/07 07:24:07;;;;;;;3.40;1.60;;;13.10;99.90;;;;;;4991531;28;20456;-72
2022/11/07 07:26:32;;;;;;;2.60;1.00;;;13.00;99.90;;;;;;4991817;28;20386;-73
2022/11/07 07:28:58;;;;;;;4.40;1.30;;;13.10;99.90;;;;;;4991769;28;20401;-72
2022/11/07 07:31:27;;;;;;;2.27;1.10;;;13.10;99.90;;;;;;4991690;28;20394;-71
2022/11/07 07:33:53;;;;;;;2.38;1.10;;;13.10;99.90;;;;;;4989934;28;20442;-72
2022/11/07 07:36:20;;;;;;;3.70;1.30;;;13.10;99.90;;;;;;4991653;28;20398;-72
2022/11/07 07:38:45;;;;;;;2.00;1.10;;;13.20;99.90;;;;;;4991484;28;20836;-72
2022/11/07 07:41:11;;;;;;;2.78;1.13;;;13.40;99.90;;;;;;4991449;28;20398;-73
2022/11/07 07:43:36;;;;;;;3.63;1.30;;;13.40;99.90;;;;;;4991071;28;20873;-72
2022/11/07 07:46:05;;;;;;;3.80;1.30;;;13.50;99.90;;;;;;4991464;28;20764;-71
2022/11/07 07:48:31;;;;;;;2.90;1.50;;;13.40;99.90;;;;;;4990919;28;20469;-72
2022/11/07 07:50:57;;;;;;;3.13;1.20;;;13.50;99.90;;;;;;4991474;28;20413;-72
2022/11/07 07:53:23;;;;;;;3.83;1.30;;;13.60;99.90;;;;;;4990792;28;20410;-72
2022/11/07 07:55:49;;;;;;;2.72;0.90;;;13.50;99.90;;;;;;4991374;28;20888;-73
2022/11/07 07:58:15;;;;;;;1.95;1.00;;;13.60;99.90;;;;;;4997549;23;20492;-76
2022/11/07 08:00:41;;;;;;;2.00;0.90;;;13.60;99.90;;;;;;4970937;28;20447;-77
2022/11/07 08:03:11;;;;;;;4.20;1.53;;;13.60;99.90;;;;;;4971348;28;21013;-75
2022/11/07 08:05:38;;;;;;;3.85;1.40;;;13.70;99.90;;;;;;4971447;28;20388;-75
2022/11/07 08:08:05;;;;;;;2.17;1.33;;;13.70;99.90;;;;;;4971800;28;20779;-75
2022/11/07 08:10:32;;;;;;;3.10;1.38;;;13.80;99.90;;;;;;4971702;28;20909;-77
2022/11/07 08:12:57;;;;;;;1.90;1.00;;;13.80;99.90;;;;;;4971570;28;20415;-77
2022/11/07 08:15:23;;;;;;;3.70;1.23;;;13.80;99.90;;;;;;4971491;28;20393;-76
2022/11/07 08:17:49;;;;;;;4.67;1.20;;;13.80;99.90;;;;;;4970169;28;20483;-75
2022/11/07 08:20:19;;;;;;;3.72;1.20;;;13.90;99.90;;;;;;4972179;28;20411;-74
2022/11/07 08:22:44;;;;;;;2.43;1.20;;;14.00;99.90;;;;;;4991253;28;20382;-75
2022/11/07 08:25:10;;;;;;;4.00;1.20;;;14.10;99.90;;;;;;4990977;28;20441;-76
2022/11/07 08:27:37;;;;;;;1.52;1.30;;;14.10;99.90;;;;;;4989725;28;20393;-76
2022/11/07 08:30:05;;;;;;;3.58;1.20;;;14.20;99.90;;;;;;4990695;28;20398;-74
2022/11/07 08:32:31;;;;;;;3.05;1.40;;;14.10;99.90;;;;;;4989303;28;20398;-75
2022/11/07 08:34:57;;;;;;;3.95;1.10;;;14.20;99.90;;;;;;4990594;28;20449;-75
2022/11/07 08:37:22;;;;;;;3.10;1.13;;;14.30;99.90;;;;;;4991388;28;20390;-75
2022/11/07 08:39:48;;;;;;;3.77;1.07;;;14.40;99.90;;;;;;4990727;28;20401;-76
2022/11/07 08:42:14;;;;;;;2.23;1.00;;;14.50;99.90;;;;;;4990933;28;20387;-75
2022/11/07 08:44:40;;;;;;;2.87;0.93;;;14.60;99.90;;;;;;4988969;28;20475;-75
2022/11/07 08:47:06;;;;;;;4.40;1.30;;;14.70;99.90;;;;;;4989312;28;20389;-75
2022/11/07 08:49:31;;;;;;;2.00;1.20;;;14.80;99.90;;;;;;4989433;28;20430;-75
2022/11/07 08:51:57;;;;;;;3.60;1.30;;;14.90;99.90;;;;;;5005745;28;20453;-76
2022/11/07 08:54:24;;;;;;;2.73;1.10;;;14.90;99.90;;;;;;4990307;28;20492;-76
2022/11/07 08:56:50;;;;;;;2.95;1.33;;;14.90;99.90;;;;;;4989247;28;20407;-75
2022/11/07 08:59:16;;;;;;;2.30;1.00;;;14.90;99.90;;;;;;4990517;28;20398;-76
2022/11/07 09:01:42;;;;;;;2.10;1.20;;;14.70;99.90;;;;;;4990566;28;20437;-75
2022/11/07 09:04:07;;;;;;;4.28;1.00;;;14.70;99.90;;;;;;4988958;28;20908;-76
2022/11/07 09:06:33;;;;;;;2.10;0.83;;;14.70;99.90;;;;;;4990504;28;20738;-75
2022/11/07 09:08:59;;;;;;;3.20;1.00;;;14.70;99.90;;;;;;4990446;28;20399;-77
2022/11/07 09:11:25;;;;;;;3.73;1.03;;;14.70;99.90;;;;;;4990676;28;20771;-76
2022/11/07 09:13:52;;;;;;;2.58;0.93;;;14.70;99.90;;;;;;4994126;28;20880;-75
2022/11/07 09:16:19;;;;;;;3.42;1.30;;;14.70;99.90;;;;;;4995317;28;20397;-74
2022/11/07 09:18:46;;;;;;;2.88;1.27;;;14.70;99.90;;;;;;4995833;28;20394;-75
2022/11/07 09:21:12;;;;;;;3.22;1.20;;;14.70;99.90;;;;;;4984740;28;20459;-75
2022/11/07 09:23:37;;;;;;;2.05;0.73;;;14.80;99.90;;;;;;4975104;28;20396;-75
2022/11/07 09:26:03;;;;;;;2.35;0.90;;;14.80;99.90;;;;;;4973388;28;20397;-76
2022/11/07 09:28:29;;;;;;;2.38;0.98;;;14.80;99.90;;;;;;4973013;28;21093;-75
2022/11/07 09:30:56;;;;;;;2.90;1.23;;;14.80;99.90;;;;;;4974492;28;20439;-76
2022/11/07 09:33:22;;;;;;;6.18;1.20;;;14.80;99.90;;;;;;4974149;28;20411;-75
2022/11/07 09:35:48;;;;;;;2.33;0.95;;;14.80;99.90;;;;;;4974354;28;20392;-77
2022/11/07 09:38:14;;;;;;;2.58;1.15;;;14.80;99.90;;;;;;4974184;28;20816;-76
2022/11/07 09:40:55;;;;;;;2.72;1.20;;;14.80;99.90;;;;;;4974175;28;20388;-75
2022/11/07 09:44:01;;;;;;;1.70;0.80;;;14.80;99.90;;;;;;4972649;28;20439;-75
2022/11/07 09:46:32;;;;;;;2.40;1.00;;;14.90;99.90;;;;;;4973033;28;20396;-76
2022/11/07 09:49:37;;;;;;;4.35;1.00;;;15.00;99.90;;;;;;4972706;28;20763;-77
2022/11/07 09:52:16;;;;;;;3.47;1.00;;;15.00;99.90;;;;;;4952025;28;20404;-75
2022/11/07 09:54:49;;;;;;;2.90;1.10;;;15.10;99.90;;;;;;4973677;28;20849;-76
2022/11/07 09:57:17;;;;;;;2.30;1.00;;;15.00;99.90;;;;;;4972532;28;20404;-76
2022/11/07 10:00:13;;;;;;;4.33;1.43;;;15.10;99.90;;;;;;4973753;28;20403;-75
2022/11/07 10:02:43;;;;;;;3.05;0.82;;;15.10;99.90;;;;;;4973533;28;20467;-76
2022/11/07 10:05:13;;;;;;;1.65;0.93;;;15.00;99.90;;;;;;4973742;28;20384;-76
2022/11/07 10:08:06;;;;;;;1.20;0.90;;;15.00;99.90;;;;;;4973941;28;20479;-77
2022/11/07 10:11:01;;;;;;;4.07;1.10;;;15.00;99.90;;;;;;4973563;28;20400;-76
2022/11/07 10:13:54;;;;;;;1.70;1.02;;;15.00;99.90;;;;;;4973416;28;20423;-75
2022/11/07 10:16:34;;;;;;;2.90;1.10;;;14.90;99.90;;;;;;4973590;28;20472;-75
2022/11/07 10:19:18;;;;;;;3.10;1.20;;;15.00;99.90;;;;;;4972289;28;20395;-76
2022/11/07 10:22:10;;;;;;;6.90;1.20;;;15.10;99.90;;;;;;4973710;28;20384;-76
2022/11/07 10:24:46;;;;;;;3.33;0.90;;;15.20;99.90;;;;;;4971449;28;20767;-75
2022/11/07 10:27:12;;;;;;;2.63;1.00;;;15.10;99.90;;;;;;4973510;28;20399;-76
2022/11/07 10:29:51;;;;;;;4.30;1.50;;;15.20;99.90;;;;;;4973305;28;20451;-76
2022/11/07 10:32:25;;;;;;;2.53;0.90;;;15.20;99.90;;;;;;4973366;28;20404;-76
2022/11/07 10:35:03;;;;;;;2.70;0.80;;;15.20;99.90;;;;;;4973453;28;20400;-75
2022/11/07 10:37:29;;;;;;;2.40;1.10;;;15.20;99.90;;;;;;4973226;28;20384;-77
2022/11/07 10:39:55;;;;;;;2.15;1.02;;;15.20;99.90;;;;;;4973247;28;20399;-74
2022/11/07 10:42:25;;;;;;;1.88;0.85;;;15.30;99.90;;;;;;4988086;28;20475;-74
2022/11/07 10:44:53;;;;;;;5.30;1.40;;;15.30;99.90;;;;;;4972852;28;20395;-75
2022/11/07 10:47:24;;;;;;;1.50;0.95;;;15.20;99.90;;;;;;4973030;28;20898;-76
2022/11/07 10:50:15;;;;;;;3.47;1.00;;;15.20;99.90;;;;;;4971883;28;20438;-75
2022/11/07 10:52:40;;;;;;;3.88;0.90;;;15.30;99.90;;;;;;4986983;28;20422;-74
2022/11/07 10:55:16;;;;;;;3.10;1.20;;;15.30;99.90;;;;;;4972759;28;20443;-76
2022/11/07 10:57:44;;;;;;;2.70;0.90;;;15.30;99.90;;;;;;4972608;28;20388;-76
2022/11/07 11:00:28;;;;;;;3.53;1.10;;;15.30;99.90;;;;;;4972757;28;20478;-76
2022/11/07 11:02:55;;;;;;;2.63;1.20;;;15.50;99.90;;;;;;4972397;28;20454;-75
2022/11/07 11:05:41;;;;;;;4.97;1.73;;;15.60;99.90;;;;;;4972645;28;20482;-74
2022/11/07 11:08:16;;;;;;;1.75;0.93;;;15.60;99.90;;;;;;4971434;28;20403;-75
2022/11/07 11:10:42;;;;;;;4.30;1.20;;;15.50;99.90;;;;;;4972522;28;20392;-75
2022/11/07 11:13:43;;;;;;;2.43;0.90;;;15.50;99.90;;;;;;4972220;28;20410;-73
2022/11/07 11:16:24;;;;;;;2.20;1.10;;;15.40;99.90;;;;;;4931881;29;20444;-74
2022/11/07 11:18:52;;;;;;;3.60;0.90;;;15.50;99.90;;;;;;4968240;28;20439;-75
2022/11/07 11:21:18;;;;;;;1.90;1.08;;;15.80;99.90;;;;;;4983004;28;20758;-77
2022/11/07 11:23:45;;;;;;;1.97;0.80;;;15.90;99.90;;;;;;4991549;28;20398;-77
2022/11/07 11:26:29;;;;;;;2.50;1.15;;;16.20;99.90;;;;;;4991791;28;20598;-76
2022/11/07 11:29:00;;;;;;;1.60;0.80;;;16.00;99.90;;;;;;4990345;28;20399;-77
2022/11/07 11:31:38;;;;;;;1.88;1.20;;;16.20;99.90;;;;;;4991490;28;20394;-75
2022/11/07 11:34:16;;;;;;;4.30;1.20;;;15.90;99.90;;;;;;4990999;28;20406;-77
2022/11/07 11:36:55;;;;;;;3.10;1.13;;;15.90;99.90;;;;;;4992036;28;20473;-76
2022/11/07 11:39:30;;;;;;;2.55;0.70;;;16.00;99.90;;;;;;4991541;28;20378;-77
2022/11/07 11:41:57;;;;;;;2.60;1.05;;;15.90;99.90;;;;;;4991533;28;20750;-76
2022/11/07 11:44:27;;;;;;;1.40;0.85;;;16.10;99.90;;;;;;4989934;28;20466;-77
2022/11/07 11:47:16;;;;;;;2.60;1.10;;;16.20;99.90;;;;;;4991184;28;20379;-76
2022/11/07 11:49:57;;;;;;;2.33;1.08;;;16.30;99.90;;;;;;4991888;28;20390;-76
2022/11/07 11:52:24;;;;;;;2.20;0.80;;;16.50;99.20;;;;;;4991488;28;20472;-77
2022/11/07 11:54:52;;;;;;;2.03;1.00;;;16.80;99.00;;;;;;4989918;28;20390;-77
2022/11/07 11:57:35;;;;;;;1.50;0.90;;;16.80;97.80;;;;;;4991002;28;20529;-77
2022/11/07 12:00:05;;;;;;;2.10;0.90;;;16.50;98.40;;;;;;4991626;28;20545;-75
2022/11/07 12:02:58;;;;;;;3.10;1.05;;;16.30;99.40;;;;;;4989887;28;21063;-77
2022/11/07 12:05:43;;;;;;;2.47;1.10;;;16.10;99.90;;;;;;4991042;28;20462;-76
2022/11/07 12:08:42;;;;;;;2.95;0.90;;;16.00;99.90;;;;;;4991176;28;20415;-76
2022/11/07 12:11:44;;;;;;;4.05;1.00;;;16.10;99.90;;;;;;4974484;28;20797;-77
2022/11/07 12:14:34;;;;;;;2.10;1.10;;;16.10;99.90;;;;;;4990610;28;20406;-76
2022/11/07 12:17:40;;;;;;;1.90;0.90;;;16.00;99.90;;;;;;4989557;28;20517;-74
2022/11/07 12:20:23;;;;;;;1.92;0.90;;;15.90;99.90;;;;;;4990056;28;20460;-77
2022/11/07 12:23:28;;;;;;;1.92;0.90;;;16.00;99.90;;;;;;4971018;28;20400;-76
2022/11/07 12:26:18;;;;;;;1.20;0.60;;;16.20;99.90;;;;;;4971519;28;20388;-77
2022/11/07 12:29:08;;;;;;;2.23;1.00;;;16.80;99.30;;;;;;4971668;28;20388;-76
2022/11/07 12:31:52;;;;;;;2.72;1.13;;;16.50;99.90;;;;;;4971734;28;20767;-77
2022/11/07 12:34:36;;;;;;;3.10;1.00;;;16.20;99.90;;;;;;4971275;28;20411;-76
2022/11/07 12:37:16;;;;;;;1.83;1.00;;;15.90;99.90;;;;;;4971482;28;20399;-76
2022/11/07 12:40:02;;;;;;;2.55;1.10;;;15.80;99.90;;;;;;4971560;28;20384;-76
2022/11/07 12:42:55;;;;;;;3.17;0.90;;;15.80;99.90;;;;;;4970168;28;20439;-76
2022/11/07 12:45:44;;;;;;;3.67;1.10;;;15.70;99.90;;;;;;4971545;28;20384;-77
2022/11/07 12:48:10;;;;;;;2.20;1.30;;;15.80;99.90;;;;;;4975176;28;20426;-76
2022/11/07 12:51:14;;;;;;;1.20;0.90;;;15.80;99.90;;;;;;4974023;28;20416;-76
2022/11/07 12:53:55;;;;;;;3.80;1.20;;;15.80;99.90;;;;;;4989691;28;20447;-76
2022/11/07 12:56:30;;;;;;;1.52;0.95;;;15.90;99.90;;;;;;4975156;28;20839;-76
2022/11/07 12:58:56;;;;;;;2.95;1.10;;;15.90;99.90;;;;;;4974064;28;20438;-76
2022/11/07 13:01:32;;;;;;;3.37;1.27;;;16.80;99.90;;;;;;4974976;28;20479;-76
2022/11/07 13:04:12;;;;;;;3.42;1.02;;;18.10;97.50;;;;;;4973355;28;20883;-76
2022/11/07 13:06:55;;;;;;;1.73;1.10;;;18.80;94.20;;;;;;4973506;28;20404;-76
2022/11/07 13:09:29;;;;;;;2.35;0.90;;;18.60;93.90;;;;;;4974719;28;20400;-72
2022/11/07 13:12:15;;;;;;;2.43;1.00;;;19.10;91.60;;;;;;4974688;28;20396;-72
2022/11/07 13:14:42;;;;;;;2.33;0.90;;;18.90;93.60;;;;;;4974787;28;20408;-73
2022/11/07 13:17:15;;;;;;;3.42;0.93;;;19.30;92.50;;;;;;4974556;28;20960;-73